sensor_id;sensor_type;location;lat;lon;timestamp;P1;durP1;ratioP1;P2;durP2;ratioP2
51758;SDS011;66684;47.568;18.734;2023-08-01T00:01:36;6.60;;;1.23;;
51758;SDS011;66684;47.568;18.734;2023-08-01T00:04:03;3.25;;;1.37;;
51758;SDS011;66684;47.568;18.734;2023-08-01T00:06:28;3.30;;;1.25;;
51758;SDS011;66684;47.568;18.734;2023-08-01T00:08:54;2.60;;;1.00;;
51758;SDS011;66684;47.568;18.734;2023-08-01T00:11:20;7.70;;;0.82;;
51758;SDS011;66684;47.568;18.734;2023-08-01T00:13:46;5.47;;;1.20;;
51758;SDS011;66684;47.568;18.734;2023-08-01T00:16:12;5.90;;;1.30;;
51758;SDS011;66684;47.568;18.734;2023-08-01T00:18:39;3.47;;;1.33;;
51758;SDS011;66684;47.568;18.734;2023-08-01T00:21:05;2.87;;;1.12;;
51758;SDS011;66684;47.568;18.734;2023-08-01T00:23:34;3.33;;;1.35;;
51758;SDS011;66684;47.568;18.734;2023-08-01T00:26:00;3.65;;;0.98;;
51758;SDS011;66684;47.568;18.734;2023-08-01T00:28:26;3.70;;;1.30;;
51758;SDS011;66684;47.568;18.734;2023-08-01T00:31:05;8.68;;;0.90;;
51758;SDS011;66684;47.568;18.734;2023-08-01T00:33:34;1.80;;;0.88;;
51758;SDS011;66684;47.568;18.734;2023-08-01T00:36:00;2.62;;;0.90;;
51758;SDS011;66684;47.568;18.734;2023-08-01T00:38:26;3.25;;;0.98;;
51758;SDS011;66684;47.568;18.734;2023-08-01T00:40:52;3.95;;;1.05;;
51758;SDS011;66684;47.568;18.734;2023-08-01T00:43:18;2.30;;;0.98;;
51758;SDS011;66684;47.568;18.734;2023-08-01T00:45:44;2.45;;;0.82;;
51758;SDS011;66684;47.568;18.734;2023-08-01T00:48:11;4.28;;;1.10;;
51758;SDS011;66684;47.568;18.734;2023-08-01T00:50:38;3.17;;;0.73;;
51758;SDS011;66684;47.568;18.734;2023-08-01T00:53:05;3.20;;;1.00;;
51758;SDS011;66684;47.568;18.734;2023-08-01T00:55:31;3.37;;;0.93;;
51758;SDS011;66684;47.568;18.734;2023-08-01T00:57:58;3.90;;;0.80;;
51758;SDS011;66684;47.568;18.734;2023-08-01T01:00:25;5.07;;;1.15;;
51758;SDS011;66684;47.568;18.734;2023-08-01T01:02:51;2.25;;;0.85;;
51758;SDS011;66684;47.568;18.734;2023-08-01T01:05:17;2.92;;;0.80;;
51758;SDS011;66684;47.568;18.734;2023-08-01T01:07:45;2.58;;;0.80;;
51758;SDS011;66684;47.568;18.734;2023-08-01T01:10:12;5.05;;;1.35;;
51758;SDS011;66684;47.568;18.734;2023-08-01T01:12:38;3.37;;;0.90;;
51758;SDS011;66684;47.568;18.734;2023-08-01T01:15:04;4.57;;;1.20;;
51758;SDS011;66684;47.568;18.734;2023-08-01T01:17:31;2.72;;;1.02;;
51758;SDS011;66684;47.568;18.734;2023-08-01T01:19:56;3.42;;;1.25;;
51758;SDS011;66684;47.568;18.734;2023-08-01T01:22:24;3.83;;;1.10;;
51758;SDS011;66684;47.568;18.734;2023-08-01T01:24:50;5.53;;;1.02;;
51758;SDS011;66684;47.568;18.734;2023-08-01T01:27:18;1.80;;;0.80;;
51758;SDS011;66684;47.568;18.734;2023-08-01T01:29:44;3.10;;;0.93;;
51758;SDS011;66684;47.568;18.734;2023-08-01T01:32:12;3.58;;;1.00;;
51758;SDS011;66684;47.568;18.734;2023-08-01T01:34:39;3.15;;;1.17;;
51758;SDS011;66684;47.568;18.734;2023-08-01T01:37:05;3.10;;;1.00;;
51758;SDS011;66684;47.568;18.734;2023-08-01T01:39:31;8.10;;;1.35;;
51758;SDS011;66684;47.568;18.734;2023-08-01T01:41:57;2.15;;;0.90;;
51758;SDS011;66684;47.568;18.734;2023-08-01T01:44:22;3.08;;;0.98;;
51758;SDS011;66684;47.568;18.734;2023-08-01T01:46:48;6.50;;;1.20;;
51758;SDS011;66684;47.568;18.734;2023-08-01T01:49:15;3.25;;;0.90;;
51758;SDS011;66684;47.568;18.734;2023-08-01T01:51:40;2.70;;;1.00;;
51758;SDS011;66684;47.568;18.734;2023-08-01T01:54:06;5.50;;;1.50;;
51758;SDS011;66684;47.568;18.734;2023-08-01T01:56:32;1.98;;;1.00;;
51758;SDS011;66684;47.568;18.734;2023-08-01T01:58:59;3.40;;;1.00;;
51758;SDS011;66684;47.568;18.734;2023-08-01T02:01:25;3.17;;;0.93;;
51758;SDS011;66684;47.568;18.734;2023-08-01T02:03:51;3.90;;;0.80;;
51758;SDS011;66684;47.568;18.734;2023-08-01T02:06:17;3.37;;;1.00;;
51758;SDS011;66684;47.568;18.734;2023-08-01T02:08:43;3.17;;;1.20;;
51758;SDS011;66684;47.568;18.734;2023-08-01T02:11:09;5.37;;;0.90;;
51758;SDS011;66684;47.568;18.734;2023-08-01T02:13:34;2.92;;;1.05;;
51758;SDS011;66684;47.568;18.734;2023-08-01T02:16:00;7.10;;;1.20;;
51758;SDS011;66684;47.568;18.734;2023-08-01T02:18:26;3.83;;;1.00;;
51758;SDS011;66684;47.568;18.734;2023-08-01T02:20:52;2.92;;;1.10;;
51758;SDS011;66684;47.568;18.734;2023-08-01T02:23:18;3.40;;;1.05;;
51758;SDS011;66684;47.568;18.734;2023-08-01T02:25:44;3.28;;;0.80;;
51758;SDS011;66684;47.568;18.734;2023-08-01T02:28:10;2.72;;;1.25;;
51758;SDS011;66684;47.568;18.734;2023-08-01T02:30:36;3.08;;;1.20;;
51758;SDS011;66684;47.568;18.734;2023-08-01T02:33:02;3.20;;;1.20;;
51758;SDS011;66684;47.568;18.734;2023-08-01T02:35:28;2.65;;;0.85;;
51758;SDS011;66684;47.568;18.734;2023-08-01T02:37:54;4.95;;;0.98;;
51758;SDS011;66684;47.568;18.734;2023-08-01T02:40:21;3.25;;;1.10;;
51758;SDS011;66684;47.568;18.734;2023-08-01T02:42:47;3.35;;;1.00;;
51758;SDS011;66684;47.568;18.734;2023-08-01T02:45:13;3.47;;;1.12;;
51758;SDS011;66684;47.568;18.734;2023-08-01T02:47:38;3.92;;;1.10;;
51758;SDS011;66684;47.568;18.734;2023-08-01T02:50:05;3.50;;;0.80;;
51758;SDS011;66684;47.568;18.734;2023-08-01T02:52:31;2.25;;;0.93;;
51758;SDS011;66684;47.568;18.734;2023-08-01T02:54:57;3.33;;;1.23;;
51758;SDS011;66684;47.568;18.734;2023-08-01T02:57:23;2.67;;;1.08;;
51758;SDS011;66684;47.568;18.734;2023-08-01T02:59:49;4.03;;;1.10;;
51758;SDS011;66684;47.568;18.734;2023-08-01T03:02:15;3.40;;;1.12;;
51758;SDS011;66684;47.568;18.734;2023-08-01T03:04:41;5.60;;;1.35;;
51758;SDS011;66684;47.568;18.734;2023-08-01T03:07:07;5.30;;;1.33;;
51758;SDS011;66684;47.568;18.734;2023-08-01T03:09:33;4.72;;;1.17;;
51758;SDS011;66684;47.568;18.734;2023-08-01T03:11:59;2.00;;;0.88;;
51758;SDS011;66684;47.568;18.734;2023-08-01T03:14:24;5.45;;;1.30;;
51758;SDS011;66684;47.568;18.734;2023-08-01T03:16:50;3.70;;;1.40;;
51758;SDS011;66684;47.568;18.734;2023-08-01T03:19:16;3.70;;;1.40;;
51758;SDS011;66684;47.568;18.734;2023-08-01T03:21:42;3.67;;;1.25;;
51758;SDS011;66684;47.568;18.734;2023-08-01T03:24:08;2.62;;;1.10;;
51758;SDS011;66684;47.568;18.734;2023-08-01T03:26:34;4.43;;;1.50;;
51758;SDS011;66684;47.568;18.734;2023-08-01T03:29:01;3.92;;;1.20;;
51758;SDS011;66684;47.568;18.734;2023-08-01T03:31:27;4.78;;;1.90;;
51758;SDS011;66684;47.568;18.734;2023-08-01T03:33:53;3.08;;;1.27;;
51758;SDS011;66684;47.568;18.734;2023-08-01T03:36:19;8.13;;;1.35;;
51758;SDS011;66684;47.568;18.734;2023-08-01T03:38:45;4.00;;;1.58;;
51758;SDS011;66684;47.568;18.734;2023-08-01T03:41:12;4.53;;;1.48;;
51758;SDS011;66684;47.568;18.734;2023-08-01T03:43:39;7.55;;;2.67;;
51758;SDS011;66684;47.568;18.734;2023-08-01T03:46:05;5.95;;;2.10;;
51758;SDS011;66684;47.568;18.734;2023-08-01T03:48:31;4.20;;;1.90;;
51758;SDS011;66684;47.568;18.734;2023-08-01T03:50:56;4.78;;;1.67;;
51758;SDS011;66684;47.568;18.734;2023-08-01T03:53:22;4.22;;;1.80;;
51758;SDS011;66684;47.568;18.734;2023-08-01T03:55:48;3.25;;;1.87;;
51758;SDS011;66684;47.568;18.734;2023-08-01T03:58:14;7.55;;;1.70;;
51758;SDS011;66684;47.568;18.734;2023-08-01T04:00:40;4.55;;;1.62;;
51758;SDS011;66684;47.568;18.734;2023-08-01T04:03:06;5.07;;;1.52;;
51758;SDS011;66684;47.568;18.734;2023-08-01T04:05:32;6.60;;;1.90;;
51758;SDS011;66684;47.568;18.734;2023-08-01T04:07:58;4.68;;;1.90;;
51758;SDS011;66684;47.568;18.734;2023-08-01T04:10:25;5.43;;;1.70;;
51758;SDS011;66684;47.568;18.734;2023-08-01T04:12:51;5.60;;;1.77;;
51758;SDS011;66684;47.568;18.734;2023-08-01T04:15:17;6.07;;;2.17;;
51758;SDS011;66684;47.568;18.734;2023-08-01T04:17:43;3.78;;;1.83;;
51758;SDS011;66684;47.568;18.734;2023-08-01T04:20:09;8.77;;;1.90;;
51758;SDS011;66684;47.568;18.734;2023-08-01T04:22:35;4.45;;;2.00;;
51758;SDS011;66684;47.568;18.734;2023-08-01T04:25:01;5.47;;;2.08;;
51758;SDS011;66684;47.568;18.734;2023-08-01T04:27:27;4.22;;;1.60;;
51758;SDS011;66684;47.568;18.734;2023-08-01T04:29:54;5.75;;;2.00;;
51758;SDS011;66684;47.568;18.734;2023-08-01T04:32:20;4.47;;;1.73;;
51758;SDS011;66684;47.568;18.734;2023-08-01T04:34:47;7.43;;;2.00;;
51758;SDS011;66684;47.568;18.734;2023-08-01T04:37:13;4.95;;;1.55;;
51758;SDS011;66684;47.568;18.734;2023-08-01T04:39:39;7.22;;;2.05;;
51758;SDS011;66684;47.568;18.734;2023-08-01T04:42:05;7.97;;;2.00;;
51758;SDS011;66684;47.568;18.734;2023-08-01T04:44:31;9.15;;;1.92;;
51758;SDS011;66684;47.568;18.734;2023-08-01T04:46:57;7.32;;;2.10;;
51758;SDS011;66684;47.568;18.734;2023-08-01T04:49:23;3.67;;;1.23;;
51758;SDS011;66684;47.568;18.734;2023-08-01T04:51:52;4.62;;;1.48;;
51758;SDS011;66684;47.568;18.734;2023-08-01T04:54:18;3.70;;;1.65;;
51758;SDS011;66684;47.568;18.734;2023-08-01T04:56:44;6.60;;;1.90;;
51758;SDS011;66684;47.568;18.734;2023-08-01T04:59:10;4.30;;;1.75;;
51758;SDS011;66684;47.568;18.734;2023-08-01T05:01:36;5.55;;;2.20;;
51758;SDS011;66684;47.568;18.734;2023-08-01T05:04:01;6.00;;;2.05;;
51758;SDS011;66684;47.568;18.734;2023-08-01T05:06:28;6.75;;;2.30;;
51758;SDS011;66684;47.568;18.734;2023-08-01T05:08:54;4.68;;;1.92;;
51758;SDS011;66684;47.568;18.734;2023-08-01T05:11:20;4.75;;;2.25;;
51758;SDS011;66684;47.568;18.734;2023-08-01T05:13:46;6.25;;;2.20;;
51758;SDS011;66684;47.568;18.734;2023-08-01T05:16:12;8.63;;;2.17;;
51758;SDS011;66684;47.568;18.734;2023-08-01T05:18:38;6.28;;;1.70;;
51758;SDS011;66684;47.568;18.734;2023-08-01T05:21:04;7.57;;;2.05;;
51758;SDS011;66684;47.568;18.734;2023-08-01T05:23:30;6.65;;;2.03;;
51758;SDS011;66684;47.568;18.734;2023-08-01T05:25:55;7.30;;;1.87;;
51758;SDS011;66684;47.568;18.734;2023-08-01T05:28:21;5.32;;;1.67;;
51758;SDS011;66684;47.568;18.734;2023-08-01T05:30:47;6.60;;;2.12;;
51758;SDS011;66684;47.568;18.734;2023-08-01T05:33:13;5.35;;;2.00;;
51758;SDS011;66684;47.568;18.734;2023-08-01T05:35:39;8.15;;;2.05;;
51758;SDS011;66684;47.568;18.734;2023-08-01T05:38:05;8.38;;;2.00;;
51758;SDS011;66684;47.568;18.734;2023-08-01T05:40:31;5.53;;;2.05;;
51758;SDS011;66684;47.568;18.734;2023-08-01T05:42:57;4.55;;;2.10;;
51758;SDS011;66684;47.568;18.734;2023-08-01T05:45:23;6.55;;;2.00;;
51758;SDS011;66684;47.568;18.734;2023-08-01T05:47:49;3.35;;;1.90;;
51758;SDS011;66684;47.568;18.734;2023-08-01T05:50:15;3.60;;;1.90;;
51758;SDS011;66684;47.568;18.734;2023-08-01T05:52:41;4.65;;;1.70;;
51758;SDS011;66684;47.568;18.734;2023-08-01T05:55:07;4.93;;;1.70;;
51758;SDS011;66684;47.568;18.734;2023-08-01T05:57:33;6.28;;;2.00;;
51758;SDS011;66684;47.568;18.734;2023-08-01T06:00:00;4.25;;;1.65;;
51758;SDS011;66684;47.568;18.734;2023-08-01T06:02:25;4.55;;;1.77;;
51758;SDS011;66684;47.568;18.734;2023-08-01T06:04:51;5.62;;;1.90;;
51758;SDS011;66684;47.568;18.734;2023-08-01T06:07:17;3.75;;;1.80;;
51758;SDS011;66684;47.568;18.734;2023-08-01T06:09:49;9.60;;;1.77;;
51758;SDS011;66684;47.568;18.734;2023-08-01T06:12:18;5.35;;;2.10;;
51758;SDS011;66684;47.568;18.734;2023-08-01T06:14:44;5.70;;;1.85;;
51758;SDS011;66684;47.568;18.734;2023-08-01T06:17:10;5.78;;;2.05;;
51758;SDS011;66684;47.568;18.734;2023-08-01T06:19:36;7.82;;;2.08;;
51758;SDS011;66684;47.568;18.734;2023-08-01T06:22:02;4.60;;;1.52;;
51758;SDS011;66684;47.568;18.734;2023-08-01T06:24:28;4.80;;;2.22;;
51758;SDS011;66684;47.568;18.734;2023-08-01T06:26:54;9.18;;;2.70;;
51758;SDS011;66684;47.568;18.734;2023-08-01T06:29:20;6.12;;;1.95;;
51758;SDS011;66684;47.568;18.734;2023-08-01T06:31:46;3.20;;;1.75;;
51758;SDS011;66684;47.568;18.734;2023-08-01T06:34:12;2.83;;;1.83;;
51758;SDS011;66684;47.568;18.734;2023-08-01T06:36:37;6.15;;;1.90;;
51758;SDS011;66684;47.568;18.734;2023-08-01T06:39:03;7.72;;;1.98;;
51758;SDS011;66684;47.568;18.734;2023-08-01T06:41:29;4.40;;;1.83;;
51758;SDS011;66684;47.568;18.734;2023-08-01T06:43:55;8.38;;;2.05;;
51758;SDS011;66684;47.568;18.734;2023-08-01T06:46:21;3.72;;;2.10;;
51758;SDS011;66684;47.568;18.734;2023-08-01T06:48:47;5.07;;;1.90;;
51758;SDS011;66684;47.568;18.734;2023-08-01T06:51:13;8.43;;;2.05;;
51758;SDS011;66684;47.568;18.734;2023-08-01T06:53:39;6.30;;;2.00;;
51758;SDS011;66684;47.568;18.734;2023-08-01T06:56:05;6.68;;;2.15;;
51758;SDS011;66684;47.568;18.734;2023-08-01T06:58:31;5.05;;;1.98;;
51758;SDS011;66684;47.568;18.734;2023-08-01T07:00:57;5.90;;;1.83;;
51758;SDS011;66684;47.568;18.734;2023-08-01T07:03:23;9.45;;;2.17;;
51758;SDS011;66684;47.568;18.734;2023-08-01T07:05:49;8.20;;;2.00;;
51758;SDS011;66684;47.568;18.734;2023-08-01T07:08:14;2.67;;;1.60;;
51758;SDS011;66684;47.568;18.734;2023-08-01T07:10:41;4.37;;;2.00;;
51758;SDS011;66684;47.568;18.734;2023-08-01T07:13:07;6.45;;;1.90;;
51758;SDS011;66684;47.568;18.734;2023-08-01T07:15:33;5.28;;;1.90;;
51758;SDS011;66684;47.568;18.734;2023-08-01T07:17:59;5.40;;;2.03;;
51758;SDS011;66684;47.568;18.734;2023-08-01T07:20:25;5.68;;;1.83;;
51758;SDS011;66684;47.568;18.734;2023-08-01T07:22:51;5.10;;;1.60;;
51758;SDS011;66684;47.568;18.734;2023-08-01T07:25:17;5.60;;;1.10;;
51758;SDS011;66684;47.568;18.734;2023-08-01T07:27:45;2.92;;;1.10;;
51758;SDS011;66684;47.568;18.734;2023-08-01T07:30:11;3.58;;;1.30;;
51758;SDS011;66684;47.568;18.734;2023-08-01T07:32:38;4.10;;;1.62;;
51758;SDS011;66684;47.568;18.734;2023-08-01T07:35:04;5.80;;;1.70;;
51758;SDS011;66684;47.568;18.734;2023-08-01T07:37:34;5.00;;;1.35;;
51758;SDS011;66684;47.568;18.734;2023-08-01T07:40:00;7.03;;;1.17;;
51758;SDS011;66684;47.568;18.734;2023-08-01T07:42:26;5.72;;;1.40;;
51758;SDS011;66684;47.568;18.734;2023-08-01T07:44:52;4.12;;;1.42;;
51758;SDS011;66684;47.568;18.734;2023-08-01T07:47:17;2.15;;;1.20;;
51758;SDS011;66684;47.568;18.734;2023-08-01T07:49:43;3.25;;;1.23;;
51758;SDS011;66684;47.568;18.734;2023-08-01T07:52:09;2.97;;;1.20;;
51758;SDS011;66684;47.568;18.734;2023-08-01T07:54:35;6.78;;;1.40;;
51758;SDS011;66684;47.568;18.734;2023-08-01T07:57:01;2.40;;;1.33;;
51758;SDS011;66684;47.568;18.734;2023-08-01T07:59:27;3.47;;;1.40;;
51758;SDS011;66684;47.568;18.734;2023-08-01T08:01:53;5.62;;;1.60;;
51758;SDS011;66684;47.568;18.734;2023-08-01T08:04:19;2.95;;;1.40;;
51758;SDS011;66684;47.568;18.734;2023-08-01T08:06:45;5.18;;;1.45;;
51758;SDS011;66684;47.568;18.734;2023-08-01T08:09:10;8.48;;;1.52;;
51758;SDS011;66684;47.568;18.734;2023-08-01T08:11:36;5.50;;;1.77;;
51758;SDS011;66684;47.568;18.734;2023-08-01T08:14:02;4.32;;;1.30;;
51758;SDS011;66684;47.568;18.734;2023-08-01T08:16:28;6.20;;;1.20;;
51758;SDS011;66684;47.568;18.734;2023-08-01T08:18:54;4.32;;;1.10;;
51758;SDS011;66684;47.568;18.734;2023-08-01T08:21:20;3.30;;;1.55;;
51758;SDS011;66684;47.568;18.734;2023-08-01T08:23:46;3.03;;;1.30;;
51758;SDS011;66684;47.568;18.734;2023-08-01T08:26:12;2.33;;;1.33;;
51758;SDS011;66684;47.568;18.734;2023-08-01T08:28:38;2.22;;;1.48;;
51758;SDS011;66684;47.568;18.734;2023-08-01T08:31:05;6.18;;;1.83;;
51758;SDS011;66684;47.568;18.734;2023-08-01T08:33:31;2.80;;;1.15;;
51758;SDS011;66684;47.568;18.734;2023-08-01T08:35:57;1.98;;;0.98;;
51758;SDS011;66684;47.568;18.734;2023-08-01T08:38:23;6.43;;;1.33;;
51758;SDS011;66684;47.568;18.734;2023-08-01T08:40:57;3.65;;;0.93;;
51758;SDS011;66684;47.568;18.734;2023-08-01T08:43:33;5.95;;;1.27;;
51758;SDS011;66684;47.568;18.734;2023-08-01T08:46:00;3.92;;;1.20;;
51758;SDS011;66684;47.568;18.734;2023-08-01T08:48:26;6.45;;;1.20;;
51758;SDS011;66684;47.568;18.734;2023-08-01T08:50:54;3.80;;;0.98;;
51758;SDS011;66684;47.568;18.734;2023-08-01T08:53:23;1.95;;;0.98;;
51758;SDS011;66684;47.568;18.734;2023-08-01T08:55:50;2.87;;;1.12;;
51758;SDS011;66684;47.568;18.734;2023-08-01T08:58:16;8.00;;;1.50;;
51758;SDS011;66684;47.568;18.734;2023-08-01T09:00:42;4.60;;;1.10;;
51758;SDS011;66684;47.568;18.734;2023-08-01T09:03:09;4.32;;;0.90;;
51758;SDS011;66684;47.568;18.734;2023-08-01T09:05:45;3.95;;;1.08;;
51758;SDS011;66684;47.568;18.734;2023-08-01T09:08:19;1.60;;;0.90;;
51758;SDS011;66684;47.568;18.734;2023-08-01T09:10:46;3.42;;;1.17;;
51758;SDS011;66684;47.568;18.734;2023-08-01T09:13:13;4.93;;;1.23;;
51758;SDS011;66684;47.568;18.734;2023-08-01T09:15:39;5.93;;;1.40;;
51758;SDS011;66684;47.568;18.734;2023-08-01T09:18:08;1.87;;;1.12;;
51758;SDS011;66684;47.568;18.734;2023-08-01T09:21:08;4.65;;;1.20;;
51758;SDS011;66684;47.568;18.734;2023-08-01T09:23:28;4.28;;;0.95;;
51758;SDS011;66684;47.568;18.734;2023-08-01T09:25:55;4.00;;;0.88;;
51758;SDS011;66684;47.568;18.734;2023-08-01T09:28:22;1.60;;;1.10;;
51758;SDS011;66684;47.568;18.734;2023-08-01T09:30:50;2.33;;;0.90;;
51758;SDS011;66684;47.568;18.734;2023-08-01T09:33:17;5.82;;;1.08;;
51758;SDS011;66684;47.568;18.734;2023-08-01T09:35:44;1.30;;;0.80;;
51758;SDS011;66684;47.568;18.734;2023-08-01T09:38:14;3.47;;;1.10;;
51758;SDS011;66684;47.568;18.734;2023-08-01T09:40:44;7.00;;;0.90;;
51758;SDS011;66684;47.568;18.734;2023-08-01T09:43:11;2.85;;;0.80;;
51758;SDS011;66684;47.568;18.734;2023-08-01T09:45:37;2.03;;;1.10;;
51758;SDS011;66684;47.568;18.734;2023-08-01T09:48:28;1.92;;;0.77;;
51758;SDS011;66684;47.568;18.734;2023-08-01T09:51:10;2.75;;;0.85;;
51758;SDS011;66684;47.568;18.734;2023-08-01T09:53:56;3.95;;;0.73;;
51758;SDS011;66684;47.568;18.734;2023-08-01T09:56:23;6.15;;;1.08;;
51758;SDS011;66684;47.568;18.734;2023-08-01T09:58:51;2.20;;;1.00;;
51758;SDS011;66684;47.568;18.734;2023-08-01T10:01:19;2.85;;;0.80;;
51758;SDS011;66684;47.568;18.734;2023-08-01T10:03:47;4.57;;;1.10;;
51758;SDS011;66684;47.568;18.734;2023-08-01T10:06:14;4.95;;;1.90;;
51758;SDS011;66684;47.568;18.734;2023-08-01T10:08:44;6.62;;;1.73;;
51758;SDS011;66684;47.568;18.734;2023-08-01T10:11:12;1.85;;;0.95;;
51758;SDS011;66684;47.568;18.734;2023-08-01T10:13:41;5.50;;;1.20;;
51758;SDS011;66684;47.568;18.734;2023-08-01T10:16:07;5.97;;;1.17;;
51758;SDS011;66684;47.568;18.734;2023-08-01T10:18:34;3.10;;;1.02;;
51758;SDS011;66684;47.568;18.734;2023-08-01T10:21:06;6.97;;;1.00;;
51758;SDS011;66684;47.568;18.734;2023-08-01T10:23:34;5.80;;;1.27;;
51758;SDS011;66684;47.568;18.734;2023-08-01T10:26:00;2.47;;;0.90;;
51758;SDS011;66684;47.568;18.734;2023-08-01T10:28:33;2.12;;;1.05;;
51758;SDS011;66684;47.568;18.734;2023-08-01T10:31:09;4.28;;;0.98;;
51758;SDS011;66684;47.568;18.734;2023-08-01T10:33:40;2.53;;;0.90;;
51758;SDS011;66684;47.568;18.734;2023-08-01T10:41:24;6.37;;;1.23;;
51758;SDS011;66684;47.568;18.734;2023-08-01T10:44:05;2.00;;;0.80;;
51758;SDS011;66684;47.568;18.734;2023-08-01T10:46:45;3.83;;;0.88;;
51758;SDS011;66684;47.568;18.734;2023-08-01T10:49:12;7.80;;;1.45;;
51758;SDS011;66684;47.568;18.734;2023-08-01T10:51:38;6.53;;;1.05;;
51758;SDS011;66684;47.568;18.734;2023-08-01T10:54:04;6.75;;;0.70;;
51758;SDS011;66684;47.568;18.734;2023-08-01T10:56:30;2.70;;;0.80;;
51758;SDS011;66684;47.568;18.734;2023-08-01T10:58:57;2.15;;;0.75;;
51758;SDS011;66684;47.568;18.734;2023-08-01T11:01:24;5.00;;;1.02;;
51758;SDS011;66684;47.568;18.734;2023-08-01T11:03:52;6.05;;;0.93;;
51758;SDS011;66684;47.568;18.734;2023-08-01T11:06:17;5.97;;;0.90;;
51758;SDS011;66684;47.568;18.734;2023-08-01T11:08:43;3.20;;;0.88;;
51758;SDS011;66684;47.568;18.734;2023-08-01T11:11:13;3.03;;;0.90;;
51758;SDS011;66684;47.568;18.734;2023-08-01T11:13:40;6.65;;;0.93;;
51758;SDS011;66684;47.568;18.734;2023-08-01T11:16:06;3.42;;;0.88;;
51758;SDS011;66684;47.568;18.734;2023-08-01T11:18:42;4.60;;;0.80;;
51758;SDS011;66684;47.568;18.734;2023-08-01T11:21:08;6.28;;;0.82;;
51758;SDS011;66684;47.568;18.734;2023-08-01T11:23:34;1.65;;;0.82;;
51758;SDS011;66684;47.568;18.734;2023-08-01T11:26:06;3.87;;;1.00;;
51758;SDS011;66684;47.568;18.734;2023-08-01T11:28:36;3.70;;;0.62;;
51758;SDS011;66684;47.568;18.734;2023-08-01T11:31:11;1.92;;;1.10;;
51758;SDS011;66684;47.568;18.734;2023-08-01T11:33:38;5.72;;;1.00;;
51758;SDS011;66684;47.568;18.734;2023-08-01T11:36:04;4.18;;;0.90;;
51758;SDS011;66684;47.568;18.734;2023-08-01T11:38:32;5.32;;;0.82;;
51758;SDS011;66684;47.568;18.734;2023-08-01T11:41:00;4.03;;;1.02;;
51758;SDS011;66684;47.568;18.734;2023-08-01T11:43:37;2.65;;;0.80;;
51758;SDS011;66684;47.568;18.734;2023-08-01T11:46:06;7.03;;;1.02;;
51758;SDS011;66684;47.568;18.734;2023-08-01T11:48:32;2.70;;;0.77;;
51758;SDS011;66684;47.568;18.734;2023-08-01T11:50:58;4.50;;;1.10;;
51758;SDS011;66684;47.568;18.734;2023-08-01T11:53:25;2.83;;;0.60;;
51758;SDS011;66684;47.568;18.734;2023-08-01T11:55:52;3.10;;;0.95;;
51758;SDS011;66684;47.568;18.734;2023-08-01T11:58:30;9.48;;;0.80;;
51758;SDS011;66684;47.568;18.734;2023-08-01T12:01:11;6.10;;;0.70;;
51758;SDS011;66684;47.568;18.734;2023-08-01T12:06:14;3.50;;;1.00;;
51758;SDS011;66684;47.568;18.734;2023-08-01T12:08:41;1.87;;;0.80;;
51758;SDS011;66684;47.568;18.734;2023-08-01T12:11:27;3.72;;;0.70;;
51758;SDS011;66684;47.568;18.734;2023-08-01T12:14:02;1.65;;;0.85;;
51758;SDS011;66684;47.568;18.734;2023-08-01T12:16:35;4.68;;;0.80;;
51758;SDS011;66684;47.568;18.734;2023-08-01T12:19:05;4.85;;;1.00;;
51758;SDS011;66684;47.568;18.734;2023-08-01T12:21:33;3.25;;;0.85;;
51758;SDS011;66684;47.568;18.734;2023-08-01T12:24:00;3.12;;;0.93;;
51758;SDS011;66684;47.568;18.734;2023-08-01T12:26:26;2.80;;;0.88;;
51758;SDS011;66684;47.568;18.734;2023-08-01T12:28:52;2.45;;;0.90;;
51758;SDS011;66684;47.568;18.734;2023-08-01T12:31:18;4.32;;;0.70;;
51758;SDS011;66684;47.568;18.734;2023-08-01T12:33:45;2.30;;;0.68;;
51758;SDS011;66684;47.568;18.734;2023-08-01T12:36:14;3.17;;;0.60;;
51758;SDS011;66684;47.568;18.734;2023-08-01T12:38:41;3.58;;;0.80;;
51758;SDS011;66684;47.568;18.734;2023-08-01T12:41:07;3.95;;;0.82;;
51758;SDS011;66684;47.568;18.734;2023-08-01T12:43:33;5.55;;;0.77;;
51758;SDS011;66684;47.568;18.734;2023-08-01T12:45:59;5.05;;;1.00;;
51758;SDS011;66684;47.568;18.734;2023-08-01T12:48:25;4.05;;;1.20;;
51758;SDS011;66684;47.568;18.734;2023-08-01T12:50:52;4.30;;;0.88;;
51758;SDS011;66684;47.568;18.734;2023-08-01T12:53:18;2.17;;;1.00;;
51758;SDS011;66684;47.568;18.734;2023-08-01T12:55:46;2.53;;;0.68;;
51758;SDS011;66684;47.568;18.734;2023-08-01T12:58:12;2.35;;;0.90;;
51758;SDS011;66684;47.568;18.734;2023-08-01T13:00:39;1.40;;;0.60;;
51758;SDS011;66684;47.568;18.734;2023-08-01T13:03:06;5.75;;;0.70;;
51758;SDS011;66684;47.568;18.734;2023-08-01T13:05:35;4.45;;;0.93;;
51758;SDS011;66684;47.568;18.734;2023-08-01T13:08:01;4.87;;;0.62;;
51758;SDS011;66684;47.568;18.734;2023-08-01T13:10:31;2.70;;;0.98;;
51758;SDS011;66684;47.568;18.734;2023-08-01T13:12:58;3.15;;;0.80;;
51758;SDS011;66684;47.568;18.734;2023-08-01T13:15:25;3.80;;;1.05;;
51758;SDS011;66684;47.568;18.734;2023-08-01T13:17:51;6.80;;;1.00;;
51758;SDS011;66684;47.568;18.734;2023-08-01T13:20:17;5.35;;;1.20;;
51758;SDS011;66684;47.568;18.734;2023-08-01T13:22:45;4.68;;;0.80;;
51758;SDS011;66684;47.568;18.734;2023-08-01T13:25:15;4.70;;;0.90;;
51758;SDS011;66684;47.568;18.734;2023-08-01T13:27:41;2.92;;;0.98;;
51758;SDS011;66684;47.568;18.734;2023-08-01T13:30:08;3.78;;;0.82;;
51758;SDS011;66684;47.568;18.734;2023-08-01T13:32:34;5.57;;;1.08;;
51758;SDS011;66684;47.568;18.734;2023-08-01T13:35:01;6.37;;;0.88;;
51758;SDS011;66684;47.568;18.734;2023-08-01T13:37:27;5.20;;;0.90;;
51758;SDS011;66684;47.568;18.734;2023-08-01T13:39:56;4.07;;;1.02;;
51758;SDS011;66684;47.568;18.734;2023-08-01T13:42:22;6.03;;;0.70;;
51758;SDS011;66684;47.568;18.734;2023-08-01T13:44:48;3.70;;;0.95;;
51758;SDS011;66684;47.568;18.734;2023-08-01T13:47:14;4.40;;;0.62;;
51758;SDS011;66684;47.568;18.734;2023-08-01T13:49:40;3.53;;;0.80;;
51758;SDS011;66684;47.568;18.734;2023-08-01T13:52:06;7.00;;;1.33;;
51758;SDS011;66684;47.568;18.734;2023-08-01T13:54:32;2.37;;;0.80;;
51758;SDS011;66684;47.568;18.734;2023-08-01T13:56:58;2.35;;;1.02;;
51758;SDS011;66684;47.568;18.734;2023-08-01T13:59:24;2.35;;;0.90;;
51758;SDS011;66684;47.568;18.734;2023-08-01T14:01:49;3.42;;;0.80;;
51758;SDS011;66684;47.568;18.734;2023-08-01T14:04:15;3.10;;;0.80;;
51758;SDS011;66684;47.568;18.734;2023-08-01T14:06:41;3.70;;;0.90;;
51758;SDS011;66684;47.568;18.734;2023-08-01T14:09:08;5.03;;;0.90;;
51758;SDS011;66684;47.568;18.734;2023-08-01T14:11:34;3.90;;;0.70;;
51758;SDS011;66684;47.568;18.734;2023-08-01T14:14:01;2.92;;;1.10;;
51758;SDS011;66684;47.568;18.734;2023-08-01T14:16:27;2.37;;;0.80;;
51758;SDS011;66684;47.568;18.734;2023-08-01T14:18:53;5.43;;;1.00;;
51758;SDS011;66684;47.568;18.734;2023-08-01T14:21:19;6.55;;;0.95;;
51758;SDS011;66684;47.568;18.734;2023-08-01T14:23:45;3.42;;;0.90;;
51758;SDS011;66684;47.568;18.734;2023-08-01T14:26:11;10.18;;;1.10;;
51758;SDS011;66684;47.568;18.734;2023-08-01T14:28:37;3.65;;;0.90;;
51758;SDS011;66684;47.568;18.734;2023-08-01T14:31:03;2.33;;;0.90;;
51758;SDS011;66684;47.568;18.734;2023-08-01T14:33:30;1.08;;;0.70;;
51758;SDS011;66684;47.568;18.734;2023-08-01T14:35:56;3.45;;;0.82;;
51758;SDS011;66684;47.568;18.734;2023-08-01T14:38:22;2.85;;;0.90;;
51758;SDS011;66684;47.568;18.734;2023-08-01T14:40:48;2.58;;;0.73;;